createdAt,value
2024-05-09T00:01:57.502Z,2.33
2024-05-09T00:04:27.296Z,2.63
2024-05-09T00:06:57.067Z,2.30
2024-05-09T00:09:29.456Z,2.10
2024-05-09T00:11:59.432Z,2.50
2024-05-09T00:14:29.390Z,2.30
2024-05-09T00:16:59.293Z,2.13
2024-05-09T00:19:29.239Z,2.70
2024-05-09T00:21:59.164Z,2.90
2024-05-09T00:24:31.604Z,2.57
2024-05-09T00:27:01.434Z,2.53
2024-05-09T00:29:31.352Z,2.60
2024-05-09T00:32:01.449Z,2.40
2024-05-09T00:34:31.414Z,2.50
2024-05-09T00:37:01.305Z,2.63
2024-05-09T00:39:33.675Z,2.50
2024-05-09T00:42:03.487Z,2.70
2024-05-09T00:44:33.300Z,2.90
2024-05-09T00:47:03.262Z,3.03
2024-05-09T00:49:34.492Z,3.10
2024-05-09T00:52:05.393Z,2.90
2024-05-09T00:54:38.037Z,2.83
2024-05-09T00:57:08.290Z,2.60
2024-05-09T00:59:38.440Z,2.90
2024-05-09T01:02:09.588Z,2.90
2024-05-09T01:04:39.432Z,3.00
2024-05-09T01:07:09.512Z,3.23
2024-05-09T01:09:41.903Z,3.23
2024-05-09T01:12:11.857Z,3.13
2024-05-09T01:14:41.713Z,3.30
2024-05-09T01:17:11.800Z,3.00
2024-05-09T01:19:42.108Z,3.33
2024-05-09T01:22:11.957Z,3.50
2024-05-09T01:24:44.316Z,3.20
2024-05-09T01:27:14.089Z,3.53
2024-05-09T01:29:43.812Z,3.60
2024-05-09T01:32:13.753Z,3.40
2024-05-09T01:34:43.623Z,3.30
2024-05-09T01:37:13.424Z,3.50
2024-05-09T01:39:45.872Z,3.27
2024-05-09T01:42:16.507Z,3.30
2024-05-09T01:44:46.939Z,3.40
2024-05-09T01:47:16.859Z,3.47
2024-05-09T01:49:46.802Z,3.80
2024-05-09T01:52:16.647Z,3.17
2024-05-09T01:54:49.070Z,3.40
2024-05-09T01:57:18.936Z,3.93
2024-05-09T01:59:48.692Z,3.50
2024-05-09T02:02:18.646Z,3.30
2024-05-09T02:04:50.004Z,3.33
2024-05-09T02:07:20.755Z,3.57
2024-05-09T02:09:54.391Z,3.93
2024-05-09T02:12:24.257Z,3.93
2024-05-09T02:14:54.469Z,3.60
2024-05-09T02:17:24.401Z,3.60
2024-05-09T02:19:54.240Z,3.80
2024-05-09T02:22:24.053Z,3.73
2024-05-09T02:24:56.442Z,3.90
2024-05-09T02:27:26.269Z,3.77
2024-05-09T02:29:56.089Z,3.53
2024-05-09T02:32:26.070Z,3.83
2024-05-09T02:34:55.973Z,4.40
2024-05-09T02:37:23.186Z,4.10
2024-05-09T02:39:52.940Z,3.80
2024-05-09T02:42:22.731Z,3.90
2024-05-09T02:44:52.487Z,3.67
2024-05-09T02:47:19.739Z,4.03
2024-05-09T02:49:49.725Z,4.10
2024-05-09T02:52:18.645Z,4.07
2024-05-09T02:54:48.415Z,4.10
2024-05-09T02:57:15.595Z,3.70
2024-05-09T02:59:48.747Z,4.03
2024-05-09T03:02:16.039Z,4.13
2024-05-09T03:04:45.967Z,3.93
2024-05-09T03:07:13.226Z,4.17
2024-05-09T03:09:48.020Z,3.63
2024-05-09T03:12:15.272Z,4.10
2024-05-09T03:14:45.029Z,3.80
2024-05-09T03:17:14.883Z,4.43
2024-05-09T03:19:44.698Z,4.00
2024-05-09T03:22:12.582Z,4.10
2024-05-09T03:24:42.507Z,4.40
2024-05-09T03:27:10.587Z,4.23
2024-05-09T03:29:40.507Z,3.90
2024-05-09T03:32:07.861Z,4.37
2024-05-09T03:34:41.746Z,4.27
2024-05-09T03:37:11.527Z,4.10
2024-05-09T03:39:41.334Z,3.80
2024-05-09T03:42:11.081Z,4.20
2024-05-09T03:44:41.638Z,4.03
2024-05-09T03:47:08.875Z,4.27
2024-05-09T03:49:41.435Z,4.27
2024-05-09T03:52:11.614Z,4.10
2024-05-09T03:54:45.626Z,4.63
2024-05-09T03:57:15.444Z,6.00
2024-05-09T03:59:42.618Z,5.93
2024-05-09T04:02:12.571Z,5.50
2024-05-09T04:04:45.072Z,6.40
2024-05-09T04:07:16.355Z,7.83
2024-05-09T04:09:43.536Z,7.07
2024-05-09T04:12:13.399Z,7.73
2024-05-09T04:14:42.899Z,7.30
2024-05-09T04:17:12.784Z,11.37
2024-05-09T04:19:40.035Z,10.83
2024-05-09T04:22:12.586Z,12.37
2024-05-09T04:24:39.774Z,16.93
2024-05-09T04:27:09.583Z,11.73
2024-05-09T04:29:37.556Z,13.17
2024-05-09T04:32:08.013Z,12.63
2024-05-09T04:34:36.104Z,15.90
2024-05-09T04:37:07.104Z,15.90
2024-05-09T04:39:36.907Z,20.83
2024-05-09T04:42:07.080Z,15.83
2024-05-09T04:44:34.536Z,15.20
2024-05-09T04:47:04.351Z,15.53
2024-05-09T04:49:31.688Z,18.10
2024-05-09T04:52:01.482Z,16.43
2024-05-09T04:54:35.809Z,18.77
2024-05-09T04:57:09.102Z,15.50
2024-05-09T04:59:36.489Z,18.53
2024-05-09T05:02:06.572Z,21.30
2024-05-09T05:04:33.947Z,17.00
2024-05-09T05:07:03.748Z,14.20
2024-05-09T05:09:31.076Z,13.40
2024-05-09T05:12:02.868Z,16.43
2024-05-09T05:14:32.776Z,16.70
2024-05-09T05:17:02.607Z,17.10
2024-05-09T05:19:29.869Z,13.73
2024-05-09T05:21:59.897Z,12.73
2024-05-09T05:24:27.062Z,16.23
2024-05-09T05:26:56.845Z,18.37
2024-05-09T05:29:24.001Z,14.77
2024-05-09T05:31:56.484Z,15.63
2024-05-09T05:34:23.704Z,16.53
2024-05-09T05:36:53.422Z,15.67
2024-05-09T05:39:20.553Z,14.73
2024-05-09T05:41:50.329Z,14.13
2024-05-09T05:44:17.671Z,13.43
2024-05-09T05:46:47.608Z,13.90
2024-05-09T05:49:17.875Z,15.73
2024-05-09T05:51:47.791Z,12.93
2024-05-09T05:54:14.960Z,13.27
2024-05-09T05:56:46.614Z,13.03
2024-05-09T05:59:15.153Z,13.13
2024-05-09T06:01:45.336Z,12.10
2024-05-09T06:04:12.753Z,12.13
2024-05-09T06:06:45.170Z,14.63
2024-05-09T06:09:12.331Z,11.93
2024-05-09T06:11:42.919Z,12.53
2024-05-09T06:14:10.251Z,15.40
2024-05-09T06:16:40.069Z,14.17
2024-05-09T06:19:07.302Z,13.47
2024-05-09T06:21:37.141Z,13.03
2024-05-09T06:24:07.116Z,11.50
2024-05-09T06:26:36.924Z,13.67
2024-05-09T06:29:04.174Z,13.30
2024-05-09T06:31:33.918Z,12.97
2024-05-09T06:34:01.262Z,12.27
2024-05-09T06:36:31.106Z,11.00
2024-05-09T06:38:58.280Z,10.63
2024-05-09T06:41:30.755Z,14.30
2024-05-09T06:43:58.289Z,11.37
2024-05-09T06:46:29.383Z,11.67
2024-05-09T06:48:56.896Z,10.63
2024-05-09T06:51:26.952Z,10.37
2024-05-09T06:53:54.943Z,9.73
2024-05-09T06:56:24.777Z,11.50
2024-05-09T06:58:54.637Z,12.57
2024-05-09T07:01:24.514Z,12.13
2024-05-09T07:03:51.872Z,12.13
2024-05-09T07:06:21.677Z,11.57
2024-05-09T07:08:50.230Z,10.67
2024-05-09T07:11:21.770Z,10.57
2024-05-09T07:13:49.406Z,11.20
2024-05-09T07:16:21.846Z,10.23
2024-05-09T07:18:54.855Z,9.97
2024-05-09T07:21:24.846Z,9.83
2024-05-09T07:23:52.077Z,10.73
2024-05-09T07:26:21.908Z,10.10
2024-05-09T07:28:49.155Z,9.63
2024-05-09T07:31:23.390Z,10.23
2024-05-09T07:33:50.628Z,10.33
2024-05-09T07:36:20.446Z,10.63
2024-05-09T07:38:47.728Z,10.63
2024-05-09T07:41:17.566Z,10.77
2024-05-09T07:43:44.878Z,8.47
2024-05-09T07:53:52.624Z,10.53
2024-05-09T07:56:26.049Z,9.00
2024-05-09T07:58:54.140Z,9.13
2024-05-09T08:01:25.833Z,9.73
2024-05-09T08:03:56.383Z,9.10
2024-05-09T08:06:29.784Z,8.63
2024-05-09T08:08:59.139Z,9.47
2024-05-09T08:11:30.593Z,9.47
2024-05-09T08:13:57.843Z,9.70
2024-05-09T08:16:27.728Z,8.70
2024-05-09T08:18:57.801Z,9.17
2024-05-09T08:21:29.626Z,8.17
2024-05-09T08:23:56.824Z,8.23
2024-05-09T08:26:26.554Z,7.80
2024-05-09T08:28:53.713Z,8.37
2024-05-09T08:31:23.602Z,8.37
2024-05-09T08:33:51.651Z,8.50
2024-05-09T08:36:24.174Z,8.53
2024-05-09T08:38:51.336Z,8.70
2024-05-09T08:41:21.209Z,8.63
2024-05-09T08:43:48.416Z,8.20
2024-05-09T08:46:18.919Z,8.47
2024-05-09T08:48:48.310Z,8.10
2024-05-09T08:51:18.356Z,8.13
2024-05-09T08:53:48.287Z,7.43
2024-05-09T08:56:19.839Z,7.23
2024-05-09T08:58:49.208Z,8.03
2024-05-09T09:01:20.757Z,7.07
2024-05-09T09:03:49.600Z,7.47
2024-05-09T09:06:22.067Z,7.07
2024-05-09T09:08:52.244Z,7.40
2024-05-09T09:11:22.050Z,7.10
2024-05-09T09:13:49.548Z,7.40
2024-05-09T09:16:19.465Z,7.50
2024-05-09T09:18:47.006Z,6.57
2024-05-09T09:21:16.941Z,6.80
2024-05-09T09:23:44.121Z,7.23
2024-05-09T09:26:21.002Z,6.93
2024-05-09T09:28:48.376Z,6.83
2024-05-09T09:31:21.291Z,7.03
2024-05-09T09:33:48.655Z,7.17
2024-05-09T09:36:19.024Z,7.43
2024-05-09T09:38:47.415Z,7.10
2024-05-09T09:41:24.487Z,7.20
2024-05-09T09:43:53.568Z,6.70
2024-05-09T09:46:24.240Z,9.30
2024-05-09T09:48:51.877Z,6.57
2024-05-09T09:51:22.237Z,6.50
2024-05-09T09:53:52.526Z,6.17
2024-05-09T09:56:25.766Z,7.13
2024-05-09T09:58:54.871Z,7.13
2024-05-09T10:01:24.779Z,7.13
2024-05-09T10:03:53.678Z,6.37
2024-05-09T10:06:24.420Z,7.23
2024-05-09T10:08:52.036Z,6.37
2024-05-09T10:11:25.367Z,7.00
2024-05-09T10:13:53.749Z,6.87
2024-05-09T10:16:24.811Z,6.07
2024-05-09T10:18:52.313Z,6.90
2024-05-09T10:21:23.922Z,7.13
2024-05-09T10:23:58.749Z,7.30
2024-05-09T10:26:38.373Z,6.57
2024-05-09T10:29:12.999Z,6.10
2024-05-09T10:31:45.638Z,6.27
2024-05-09T10:34:20.102Z,6.07
2024-05-09T10:36:55.781Z,5.70
2024-05-09T10:39:24.847Z,6.03
2024-05-09T10:41:57.207Z,6.30
2024-05-09T10:44:24.520Z,5.97
2024-05-09T10:46:54.944Z,6.47
2024-05-09T10:49:22.739Z,6.10
2024-05-09T10:51:52.700Z,6.00
2024-05-09T10:54:19.895Z,5.67
2024-05-09T10:56:58.149Z,5.63
2024-05-09T10:59:33.064Z,7.57
2024-05-09T11:02:07.697Z,6.63
2024-05-09T11:04:36.610Z,5.40
2024-05-09T11:07:11.207Z,5.20
2024-05-09T11:09:39.644Z,5.63
2024-05-09T11:12:10.667Z,5.80
2024-05-09T11:14:40.557Z,8.20
2024-05-09T11:17:11.153Z,5.50
2024-05-09T11:19:39.973Z,5.80
2024-05-09T11:22:09.964Z,5.33
2024-05-09T11:24:37.377Z,5.50
2024-05-09T11:27:08.686Z,5.50
2024-05-09T11:29:43.215Z,6.43
2024-05-09T11:32:16.423Z,6.20
2024-05-09T11:34:43.748Z,4.90
2024-05-09T11:37:14.081Z,4.67
2024-05-09T11:39:41.477Z,5.20
2024-05-09T11:42:11.256Z,4.83
2024-05-09T11:44:41.073Z,4.90
2024-05-09T11:47:10.931Z,4.70
2024-05-09T11:49:38.715Z,5.07
2024-05-09T11:52:09.490Z,4.60
2024-05-09T11:54:37.358Z,5.00
2024-05-09T11:57:09.519Z,4.50
2024-05-09T11:59:37.230Z,4.57
2024-05-09T12:02:10.537Z,4.57
2024-05-09T12:04:38.270Z,4.97
2024-05-09T12:07:11.306Z,3.90
2024-05-09T12:09:39.455Z,4.50
2024-05-09T12:12:09.445Z,4.60
2024-05-09T12:14:36.586Z,4.33
2024-05-09T12:17:09.297Z,6.30
2024-05-09T12:19:37.417Z,4.60
2024-05-09T12:22:07.675Z,4.40
2024-05-09T12:24:34.888Z,4.40
2024-05-09T12:27:04.741Z,4.00
2024-05-09T12:29:32.535Z,4.07
2024-05-09T12:32:03.205Z,4.60
2024-05-09T12:34:33.082Z,4.37
2024-05-09T12:37:02.993Z,4.60
2024-05-09T12:39:30.367Z,4.20
2024-05-09T12:42:00.166Z,4.20
2024-05-09T12:44:27.388Z,4.03
2024-05-09T12:46:57.227Z,3.77
2024-05-09T12:49:24.656Z,3.63
2024-05-09T12:51:57.175Z,3.67
2024-05-09T12:54:24.457Z,3.97
2024-05-09T12:56:54.341Z,4.10
2024-05-09T12:59:21.573Z,3.53
2024-05-09T13:01:51.420Z,3.80
2024-05-09T13:04:19.174Z,3.73
2024-05-09T13:06:49.368Z,3.20
2024-05-09T13:09:19.335Z,3.47
2024-05-09T13:11:49.309Z,3.70
2024-05-09T13:14:16.775Z,4.07
2024-05-09T13:16:46.636Z,4.03
2024-05-09T13:19:13.997Z,3.87
2024-05-09T13:21:43.892Z,3.73
2024-05-09T13:24:11.173Z,3.57
2024-05-09T13:26:43.594Z,3.27
2024-05-09T13:29:10.796Z,3.70
2024-05-09T13:31:40.684Z,4.43
2024-05-09T13:34:07.928Z,3.40
2024-05-09T13:36:37.818Z,3.00
2024-05-09T13:39:05.049Z,3.97
2024-05-09T13:41:34.874Z,3.47
2024-05-09T13:44:05.076Z,3.17
2024-05-09T13:46:34.959Z,3.10
2024-05-09T13:49:03.518Z,3.27
2024-05-09T13:51:33.439Z,3.33
2024-05-09T13:54:00.671Z,3.10
2024-05-09T13:56:30.679Z,3.03
2024-05-09T13:58:57.907Z,3.83
2024-05-09T14:01:30.662Z,3.20
2024-05-09T14:03:58.157Z,3.20
2024-05-09T14:06:28.239Z,3.20
2024-05-09T14:08:55.672Z,3.27
2024-05-09T14:11:25.486Z,3.37
2024-05-09T14:13:52.736Z,2.83
2024-05-09T14:16:22.649Z,3.10
2024-05-09T14:18:52.781Z,2.97
2024-05-09T14:21:22.622Z,2.80
2024-05-09T14:23:49.981Z,3.10
2024-05-09T14:26:20.041Z,3.07
2024-05-09T14:28:47.300Z,2.77
2024-05-09T14:31:17.166Z,3.20
2024-05-09T14:33:44.696Z,2.93
2024-05-09T14:36:17.383Z,3.07
2024-05-09T14:38:44.627Z,3.03
2024-05-09T14:41:14.490Z,4.87
2024-05-09T14:43:41.815Z,3.03
2024-05-09T14:46:11.811Z,2.53
2024-05-09T14:48:39.120Z,2.93
2024-05-09T14:51:09.159Z,3.00
2024-05-09T14:53:38.982Z,2.50
2024-05-09T14:56:09.477Z,2.80
2024-05-09T14:58:36.718Z,2.83
2024-05-09T15:01:06.640Z,2.80
2024-05-09T15:03:33.944Z,3.00
2024-05-09T15:06:04.364Z,2.57
2024-05-09T15:08:31.757Z,2.63
2024-05-09T15:11:04.209Z,2.70
2024-05-09T15:13:31.456Z,6.23
2024-05-09T15:16:01.424Z,2.80
2024-05-09T15:18:29.562Z,3.83
2024-05-09T15:20:59.623Z,2.20
2024-05-09T15:23:27.020Z,2.70
2024-05-09T15:25:56.789Z,3.70
2024-05-09T15:28:26.741Z,5.03
2024-05-09T15:30:56.552Z,4.73
2024-05-09T15:33:23.750Z,3.00
2024-05-09T15:35:54.371Z,2.77
2024-05-09T15:38:21.736Z,2.87
2024-05-09T15:40:51.699Z,2.97
2024-05-09T15:43:18.945Z,2.80
2024-05-09T15:45:51.699Z,2.70
2024-05-09T15:48:19.277Z,3.00
2024-05-09T15:50:49.177Z,2.73
2024-05-09T15:53:16.362Z,2.50
2024-05-09T15:55:46.159Z,2.80
2024-05-09T15:58:14.155Z,2.70
2024-05-09T16:00:46.333Z,2.33
2024-05-09T16:03:18.059Z,3.70
2024-05-09T16:05:48.748Z,2.63
2024-05-09T16:08:16.729Z,2.63
2024-05-09T16:10:47.655Z,2.37
2024-05-09T16:13:15.705Z,2.93
2024-05-09T16:15:46.592Z,2.90
2024-05-09T16:18:14.158Z,2.80
2024-05-09T16:20:49.336Z,2.63
2024-05-09T16:23:17.647Z,2.37
2024-05-09T16:25:48.212Z,2.13
2024-05-09T16:28:16.500Z,2.67
2024-05-09T16:30:46.390Z,2.53
2024-05-09T16:33:13.835Z,2.30
2024-05-09T16:35:46.425Z,2.40
2024-05-09T16:38:13.849Z,2.40
2024-05-09T16:40:43.735Z,2.33
2024-05-09T16:43:12.354Z,2.20
2024-05-09T16:45:44.739Z,3.03
2024-05-09T16:48:13.041Z,2.27
2024-05-09T16:50:43.041Z,2.27
2024-05-09T16:53:13.729Z,2.23
2024-05-09T16:55:43.808Z,2.20
2024-05-09T16:58:12.486Z,2.30
2024-05-09T17:00:43.938Z,2.00
2024-05-09T17:03:14.697Z,2.70
2024-05-09T17:05:47.149Z,2.37
2024-05-09T17:08:18.371Z,1.93
2024-05-09T17:10:49.357Z,2.27
2024-05-09T17:13:20.122Z,2.20
2024-05-09T17:15:50.803Z,2.47
2024-05-09T17:18:21.119Z,2.20
2024-05-09T17:20:52.462Z,2.00
2024-05-09T17:23:22.458Z,1.90
2024-05-09T17:25:52.310Z,2.23
2024-05-09T17:28:19.799Z,2.13
2024-05-09T17:30:49.866Z,2.10
2024-05-09T17:33:17.278Z,2.73
2024-05-09T17:35:50.377Z,2.40
2024-05-09T17:38:18.127Z,2.00
2024-05-09T17:40:50.665Z,2.73
2024-05-09T17:43:18.230Z,2.13
2024-05-09T17:45:48.235Z,2.13
2024-05-09T17:48:15.590Z,2.00
2024-05-09T17:50:45.647Z,2.00
2024-05-09T17:53:12.855Z,2.30
2024-05-09T17:55:43.065Z,2.20
2024-05-09T17:58:13.239Z,2.00
2024-05-09T18:00:43.175Z,1.80
2024-05-09T18:03:12.117Z,2.20
2024-05-09T18:05:45.337Z,1.80
2024-05-09T18:08:13.449Z,2.17
2024-05-09T18:10:44.310Z,2.07
2024-05-09T18:13:14.535Z,2.10
2024-05-09T18:15:45.185Z,2.60
2024-05-09T18:18:13.433Z,1.90
2024-05-09T18:20:45.726Z,2.00
2024-05-09T18:23:15.725Z,1.80
2024-05-09T18:25:47.539Z,2.00
2024-05-09T18:28:18.082Z,1.90
2024-05-09T18:30:48.003Z,1.70
2024-05-09T18:33:15.713Z,2.07
2024-05-09T18:35:46.498Z,2.00
2024-05-09T18:38:13.968Z,1.80
2024-05-09T18:40:46.223Z,1.93
2024-05-09T18:43:20.248Z,2.13
2024-05-09T18:45:53.787Z,1.83
2024-05-09T18:48:24.446Z,1.80
2024-05-09T18:50:51.710Z,1.83
2024-05-09T18:53:21.516Z,2.00
2024-05-09T18:55:48.696Z,1.77
2024-05-09T18:58:21.167Z,1.60
2024-05-09T19:00:50.495Z,1.93
2024-05-09T19:03:22.415Z,1.80
2024-05-09T19:05:51.115Z,1.63
2024-05-09T19:08:21.030Z,2.63
2024-05-09T19:10:48.296Z,1.80
2024-05-09T19:13:20.836Z,2.00
2024-05-09T19:15:48.432Z,1.87
2024-05-09T19:18:18.343Z,1.60
2024-05-09T19:20:45.664Z,2.00
2024-05-09T19:23:15.527Z,1.83
2024-05-09T19:25:42.718Z,1.90
2024-05-09T19:28:12.795Z,1.80
2024-05-09T19:30:43.213Z,1.77
2024-05-09T19:33:14.560Z,1.77
2024-05-09T19:35:42.262Z,1.80
2024-05-09T19:38:12.251Z,1.73
2024-05-09T19:40:39.515Z,1.83
2024-05-09T19:43:09.697Z,1.60
2024-05-09T19:45:37.186Z,1.70
2024-05-09T19:48:10.718Z,2.77
2024-05-09T19:50:42.899Z,1.70
2024-05-09T19:53:14.729Z,1.80
2024-05-09T19:55:42.488Z,1.73
2024-05-09T19:58:13.320Z,2.00
2024-05-09T20:00:43.056Z,1.60
2024-05-09T20:03:17.187Z,1.93
2024-05-09T20:05:46.505Z,1.73
2024-05-09T20:08:16.962Z,2.33
2024-05-09T20:10:44.269Z,9.50
2024-05-09T20:13:14.281Z,8.60
2024-05-09T20:15:41.693Z,18.87
2024-05-09T20:18:11.775Z,25.30
2024-05-09T20:20:43.982Z,26.80
2024-05-09T20:23:15.616Z,24.57
2024-05-09T20:25:43.544Z,30.67
2024-05-09T20:28:13.551Z,26.77
2024-05-09T20:30:40.972Z,32.00
2024-05-09T20:33:12.026Z,28.57
2024-05-09T20:35:41.987Z,35.30
2024-05-09T20:38:11.727Z,33.90
2024-05-09T20:40:39.877Z,33.97
2024-05-09T20:43:11.295Z,35.30
2024-05-09T20:45:39.328Z,38.17
2024-05-09T20:48:11.341Z,41.67
2024-05-09T20:50:44.026Z,56.87
2024-05-09T20:53:13.177Z,57.60
2024-05-09T20:55:45.097Z,55.40
2024-05-09T20:58:13.220Z,50.50
2024-05-09T21:00:45.386Z,50.23
2024-05-09T21:03:15.191Z,55.17
2024-05-09T21:05:49.160Z,57.47
2024-05-09T21:08:16.435Z,59.00
2024-05-09T21:10:46.320Z,55.33
2024-05-09T21:13:13.659Z,51.83
2024-05-09T21:15:43.727Z,50.30
2024-05-09T21:18:11.048Z,54.17
2024-05-09T21:20:40.862Z,49.00
2024-05-09T21:23:10.655Z,46.53
2024-05-09T21:25:40.497Z,47.33
2024-05-09T21:28:07.919Z,41.93
2024-05-09T21:30:41.943Z,44.90
2024-05-09T21:33:12.542Z,43.43
2024-05-09T21:35:44.604Z,39.37
2024-05-09T21:38:15.369Z,40.47
2024-05-09T21:40:45.851Z,38.03
2024-05-09T21:43:13.229Z,39.17
2024-05-09T21:45:43.275Z,37.30
2024-05-09T21:48:12.920Z,38.90
2024-05-09T21:50:43.035Z,38.87
2024-05-09T21:53:10.821Z,36.87
2024-05-09T21:55:43.796Z,37.50
2024-05-09T21:58:12.345Z,32.57
2024-05-09T22:00:42.888Z,34.90
2024-05-09T22:03:11.610Z,37.30
2024-05-09T22:05:44.281Z,32.27
2024-05-09T22:08:12.078Z,27.60
2024-05-09T22:10:44.854Z,28.67
2024-05-09T22:13:12.201Z,31.83
2024-05-09T22:15:42.606Z,30.80
2024-05-09T22:18:11.025Z,32.80
2024-05-09T22:20:45.339Z,28.20
2024-05-09T22:23:14.071Z,26.70
2024-05-09T22:25:46.517Z,27.63
2024-05-09T22:28:15.374Z,24.93
2024-05-09T22:30:47.128Z,26.17
2024-05-09T22:33:15.560Z,22.23
2024-05-09T22:35:45.679Z,26.63
2024-05-09T22:38:13.005Z,24.80
2024-05-09T22:40:47.984Z,24.50
2024-05-09T22:43:22.209Z,21.37
2024-05-09T22:45:54.902Z,23.93
2024-05-09T22:48:23.645Z,22.47
2024-05-09T22:50:54.171Z,19.83
2024-05-09T22:53:22.607Z,22.53
2024-05-09T22:55:52.395Z,22.63
2024-05-09T22:58:24.060Z,20.23
2024-05-09T23:00:54.168Z,19.23
2024-05-09T23:03:22.776Z,20.63
2024-05-09T23:05:52.902Z,18.40
2024-05-09T23:08:20.058Z,17.60
2024-05-09T23:10:49.876Z,17.23
2024-05-09T23:13:17.204Z,22.03
2024-05-09T23:15:49.694Z,18.83
2024-05-09T23:18:16.913Z,15.70
2024-05-09T23:20:46.708Z,18.87
2024-05-09T23:23:13.979Z,19.87
2024-05-09T23:25:43.948Z,17.67
2024-05-09T23:28:11.518Z,13.80
2024-05-09T23:30:42.339Z,15.30
2024-05-09T23:33:13.621Z,16.10
2024-05-09T23:35:45.005Z,14.90
2024-05-09T23:38:12.360Z,12.33
2024-05-09T23:40:43.070Z,12.80
2024-05-09T23:43:12.314Z,14.27
2024-05-09T23:45:43.036Z,14.77
2024-05-09T23:48:13.239Z,14.03
2024-05-09T23:50:43.241Z,13.13
2024-05-09T23:53:11.117Z,13.80
2024-05-09T23:55:41.285Z,13.40
2024-05-09T23:58:09.223Z,11.87
